Time;durP1;ratioP1;P1;durP2;ratioP2;P2;SDS_P1;SDS_P2;PMS_P1;PMS_P2;Temp;Humidity;BMP_temperature;BMP_pressure;BME280_temperature;BME280_humidity;BME280_pressure;Samples;Min_cycle;Max_cycle;Signal;HPM_P1;HPM_P2
2023/08/04 00:02:42;;;;;;;0.10;0.10;;;;;;;13.85;100.00;95934.16;5031744;28;20098;-77
2023/08/04 00:05:28;;;;;;;0.10;0.10;;;;;;;13.83;100.00;95926.38;5032525;28;20045;-77
2023/08/04 00:08:14;;;;;;;0.10;0.10;;;;;;;13.86;100.00;95941.16;5033471;28;20036;-77
2023/08/04 00:11:00;;;;;;;0.10;0.10;;;;;;;13.79;100.00;95946.88;5028574;28;20130;-77
2023/08/04 00:13:45;;;;;;;0.00;0.00;;;;;;;13.80;100.00;95945.78;5019468;28;20041;-77
2023/08/04 00:16:33;;;;;;;0.10;0.10;;;;;;;13.81;100.00;95950.06;5035594;28;20044;-77
2023/08/04 00:19:19;;;;;;;0.10;0.10;;;;;;;13.82;100.00;95954.34;5032113;28;20798;-77
2023/08/04 00:22:05;;;;;;;0.10;0.10;;;;;;;13.82;100.00;95953.56;5016341;28;20051;-75
2023/08/04 00:24:51;;;;;;;0.10;0.10;;;;;;;13.78;100.00;95958.72;5032086;28;20652;-77
2023/08/04 00:27:37;;;;;;;0.10;0.10;;;;;;;13.73;100.00;95952.56;5017790;28;20446;-77
2023/08/04 00:30:23;;;;;;;0.10;0.10;;;;;;;13.79;100.00;95956.81;5034311;28;20041;-77
2023/08/04 00:33:09;;;;;;;0.10;0.10;;;;;;;13.83;100.00;95953.28;5029535;28;20130;-77
2023/08/04 00:35:55;;;;;;;0.10;0.10;;;;;;;13.87;100.00;95958.91;5019414;28;20431;-74
2023/08/04 00:38:41;;;;;;;0.10;0.10;;;;;;;13.87;100.00;95961.59;5016473;28;20087;-77
2023/08/04 00:41:27;;;;;;;0.10;0.10;;;;;;;13.87;100.00;95958.91;5033331;28;20051;-77
2023/08/04 00:44:13;;;;;;;0.13;0.13;;;;;;;13.86;100.00;95966.19;5016307;28;20458;-77
2023/08/04 00:46:59;;;;;;;0.10;0.10;;;;;;;13.87;100.00;95965.09;5032178;28;20870;-77
2023/08/04 00:49:47;;;;;;;0.10;0.10;;;;;;;13.82;100.00;95964.31;5018380;28;21003;-77
2023/08/04 00:52:33;;;;;;;0.10;0.10;;;;;;;13.83;100.00;95969.41;5029450;28;20051;-76
2023/08/04 00:55:19;;;;;;;0.10;0.10;;;;;;;13.84;100.00;95967.53;5017308;28;20085;-77
2023/08/04 00:58:05;;;;;;;0.10;0.10;;;;;;;13.85;100.00;95966.44;5022196;28;20040;-78
2023/08/04 01:00:51;;;;;;;0.10;0.10;;;;;;;13.86;100.00;95968.88;5037636;28;20033;-77
2023/08/04 01:03:38;;;;;;;0.10;0.10;;;;;;;13.83;100.00;95972.09;5015522;28;21962;-77
2023/08/04 01:06:38;;;;;;;0.10;0.10;;;;;;;13.78;100.00;95972.16;5033696;28;20049;-77
2023/08/04 01:09:53;;;;;;;0.10;0.10;;;;;;;13.72;100.00;95983.22;5035553;28;20514;-77
2023/08/04 01:13:06;;;;;;;0.10;0.10;;;;;;;13.75;100.00;95972.69;5034131;28;20055;-77
2023/08/04 01:15:53;;;;;;;0.10;0.10;;;;;;;13.79;100.00;95976.44;5037900;28;20538;-78
2023/08/04 01:18:39;;;;;;;0.10;0.10;;;;;;;13.77;100.00;95970.53;5008408;28;20040;-75
2023/08/04 01:21:25;;;;;;;0.10;0.10;;;;;;;13.75;100.00;95972.69;5022432;28;20688;-77
2023/08/04 01:24:11;;;;;;;0.10;0.10;;;;;;;13.75;100.00;95972.69;5036591;28;20029;-78
2023/08/04 01:26:58;;;;;;;0.10;0.10;;;;;;;13.69;100.00;95960.38;5036279;28;20655;-77
2023/08/04 01:29:45;;;;;;;0.10;0.10;;;;;;;13.72;100.00;95965.19;5036557;28;20203;-77
2023/08/04 01:32:31;;;;;;;0.10;0.10;;;;;;;13.70;100.00;95967.38;5034144;28;20034;-77
2023/08/04 01:35:17;;;;;;;0.10;0.10;;;;;;;13.60;100.00;95957.47;5035777;28;20041;-77
2023/08/04 01:38:03;;;;;;;0.10;0.10;;;;;;;13.62;100.00;95954.53;5022113;28;20037;-77
2023/08/04 01:40:49;;;;;;;0.20;0.20;;;;;;;13.66;100.00;95964.44;5035028;28;20743;-76
2023/08/04 01:43:35;;;;;;;0.10;0.10;;;;;;;13.65;100.00;95956.66;5019508;28;20041;-77
2023/08/04 01:46:21;;;;;;;0.10;0.10;;;;;;;13.59;100.00;95953.19;5034221;28;20563;-77
2023/08/04 01:49:06;;;;;;;0.10;0.10;;;;;;;13.57;100.00;95963.41;5035181;28;20045;-77
2023/08/04 01:51:53;;;;;;;0.10;0.10;;;;;;;13.48;100.00;95970.47;5020879;28;20486;-76
2023/08/04 01:54:39;;;;;;;0.10;0.10;;;;;;;13.39;100.00;95974.81;5034093;28;20060;-77
2023/08/04 01:57:25;;;;;;;0.10;0.10;;;;;;;13.43;100.00;95981.25;5020425;28;20126;-76
2023/08/04 02:00:13;;;;;;;0.20;0.20;;;;;;;13.47;100.00;95979.63;5034736;28;20555;-76
2023/08/04 02:02:59;;;;;;;0.10;0.10;;;;;;;13.43;100.00;95985.81;5036485;28;20130;-76
2023/08/04 02:05:47;;;;;;;0.10;0.10;;;;;;;13.41;100.00;95982.59;5023360;28;20045;-77
2023/08/04 02:08:33;;;;;;;0.10;0.10;;;;;;;13.41;100.00;95982.59;5021306;28;20051;-77
2023/08/04 02:11:19;;;;;;;0.10;0.10;;;;;;;13.44;100.00;95974.78;5018195;28;20132;-76
2023/08/04 02:14:05;;;;;;;0.20;0.20;;;;;;;13.50;100.00;95981.75;5032469;28;20041;-78
2023/08/04 02:16:51;;;;;;;0.10;0.10;;;;;;;13.45;100.00;95987.13;5020192;28;20127;-77
2023/08/04 02:19:37;;;;;;;0.10;0.10;;;;;;;13.48;100.00;95994.66;5023119;28;20045;-77
2023/08/04 02:22:22;;;;;;;0.10;0.10;;;;;;;13.49;100.00;95988.19;5019778;28;20180;-77
2023/08/04 02:25:08;;;;;;;0.10;0.10;;;;;;;13.46;100.00;95987.94;5035931;28;21006;-77
2023/08/04 02:27:54;;;;;;;0.10;0.10;;;;;;;13.43;100.00;95992.00;5018624;28;20147;-77
2023/08/04 02:30:40;;;;;;;0.10;0.10;;;;;;;13.44;100.00;95990.09;5006546;28;20041;-76
2023/08/04 02:33:26;;;;;;;0.10;0.10;;;;;;;13.46;100.00;95991.41;5021458;28;20567;-77
2023/08/04 02:36:13;;;;;;;0.10;0.10;;;;;;;13.38;100.00;95994.69;5021328;28;20036;-76
2023/08/04 02:38:59;;;;;;;0.10;0.10;;;;;;;13.41;100.00;95994.16;5033865;28;20048;-77
2023/08/04 02:41:44;;;;;;;0.10;0.10;;;;;;;13.41;100.00;96004.09;5035710;28;20140;-77
2023/08/04 02:44:31;;;;;;;0.10;0.10;;;;;;;13.40;100.00;95995.25;5035059;28;20883;-76
2023/08/04 02:47:17;;;;;;;0.10;0.10;;;;;;;13.41;100.00;95991.47;5021267;28;20560;-76
2023/08/04 02:50:06;;;;;;;0.10;0.10;;;;;;;13.41;100.00;96002.22;5037492;28;20091;-76
2023/08/04 02:52:52;;;;;;;0.15;0.15;;;;;;;13.38;100.00;95992.00;5032095;28;20029;-76
2023/08/04 02:55:40;;;;;;;0.10;0.10;;;;;;;13.41;100.00;96001.41;5034696;28;20032;-77
2023/08/04 02:58:26;;;;;;;0.10;0.10;;;;;;;13.44;100.00;96000.84;5016169;28;20430;-77
2023/08/04 03:01:13;;;;;;;0.10;0.10;;;;;;;13.44;100.00;95998.97;5032490;28;20131;-78
2023/08/04 03:03:58;;;;;;;0.10;0.10;;;;;;;13.42;100.00;96008.41;5021777;28;20333;-77
2023/08/04 03:06:44;;;;;;;0.10;0.10;;;;;;;13.45;100.00;96005.94;5021462;28;20036;-77
2023/08/04 03:09:30;;;;;;;0.10;0.10;;;;;;;13.33;100.00;96013.56;5033287;28;20044;-77
2023/08/04 03:12:19;;;;;;;0.10;0.10;;;;;;;13.31;100.00;96013.03;5033378;28;20123;-76
2023/08/04 03:15:05;;;;;;;0.20;0.20;;;;;;;13.31;100.00;96013.84;5034028;28;20051;-77
2023/08/04 03:17:51;;;;;;;0.10;0.10;;;;;;;13.35;100.00;96017.56;5032834;28;20044;-77
2023/08/04 03:20:39;;;;;;;0.20;0.20;;;;;;;13.37;100.00;96015.38;5033762;28;20071;-76
2023/08/04 03:23:27;;;;;;;0.10;0.10;;;;;;;13.42;100.00;96028.00;5034162;28;20044;-77
2023/08/04 03:26:13;;;;;;;0.10;0.10;;;;;;;13.45;100.00;96018.59;5034971;28;20078;-76
2023/08/04 03:28:59;;;;;;;0.10;0.10;;;;;;;13.44;100.00;96020.47;5032928;28;20867;-76
2023/08/04 03:31:45;;;;;;;0.10;0.10;;;;;;;13.42;100.00;96027.22;5035330;28;20726;-76
2023/08/04 03:34:30;;;;;;;0.10;0.10;;;;;;;13.42;100.00;96025.31;5034604;28;20514;-76
2023/08/04 03:37:16;;;;;;;0.10;0.10;;;;;;;13.43;100.00;96031.50;5031454;28;20544;-77
2023/08/04 03:40:02;;;;;;;0.10;0.10;;;;;;;13.45;100.00;96038.19;5032907;28;20151;-77
2023/08/04 03:42:50;;;;;;;0.10;0.10;;;;;;;13.41;100.00;96041.72;5032716;28;20154;-77
2023/08/04 03:45:36;;;;;;;0.10;0.10;;;;;;;13.37;100.00;96033.41;5032415;28;20028;-76
2023/08/04 03:48:22;;;;;;;0.10;0.10;;;;;;;13.38;100.00;96038.53;5034244;28;20032;-77
2023/08/04 03:51:08;;;;;;;0.10;0.10;;;;;;;13.31;100.00;96034.53;5032943;28;21014;-77
2023/08/04 03:53:54;;;;;;;0.10;0.10;;;;;;;13.29;100.00;96039.34;5031424;28;20484;-76
2023/08/04 03:56:40;;;;;;;0.10;0.10;;;;;;;13.27;100.00;96041.50;5019993;28;20064;-77
2023/08/04 03:59:25;;;;;;;0.10;0.10;;;;;;;13.33;100.00;96043.09;5032765;28;20041;-76
2023/08/04 04:02:11;;;;;;;0.10;0.10;;;;;;;13.37;100.00;96039.56;5031585;28;20147;-77
2023/08/04 04:04:57;;;;;;;0.10;0.10;;;;;;;13.42;100.00;96043.34;5034487;28;20047;-77
2023/08/04 04:07:43;;;;;;;0.10;0.10;;;;;;;13.25;100.00;96039.09;5033732;28;20044;-77
2023/08/04 04:10:29;;;;;;;0.10;0.10;;;;;;;13.24;100.00;96042.06;5036677;28;20058;-77
2023/08/04 04:13:14;;;;;;;0.17;0.17;;;;;;;13.28;100.00;96048.50;5031333;28;20041;-77
2023/08/04 04:16:00;;;;;;;0.10;0.10;;;;;;;13.33;100.00;96045.78;5034053;28;20041;-76
2023/08/04 04:18:46;;;;;;;0.10;0.10;;;;;;;13.36;100.00;96053.28;5034564;28;20723;-76
2023/08/04 04:21:32;;;;;;;0.10;0.10;;;;;;;13.39;100.00;96052.75;5034050;28;20041;-76
2023/08/04 04:24:18;;;;;;;0.10;0.10;;;;;;;13.44;100.00;96058.09;5031688;28;20041;-76
2023/08/04 04:27:04;;;;;;;0.10;0.10;;;;;;;13.50;100.00;96058.88;5033841;28;21884;-77
2023/08/04 04:29:50;;;;;;;0.20;0.20;;;;;;;13.35;100.00;96054.38;5021664;28;20040;-77
2023/08/04 04:32:36;;;;;;;0.10;0.10;;;;;;;13.23;100.00;96053.88;5019074;28;20644;-76
2023/08/04 04:35:21;;;;;;;0.10;0.10;;;;;;;13.20;100.00;96070.56;5036463;28;20049;-77
2023/08/04 04:38:07;;;;;;;0.10;0.10;;;;;;;13.25;100.00;96060.59;5033169;28;20124;-77
2023/08/04 04:41:01;;;;;;;0.10;0.10;;;;;;;13.02;100.00;96071.94;5031572;28;20071;-76
2023/08/04 04:43:46;;;;;;;0.10;0.10;;;;;;;13.23;100.00;96078.06;5034615;28;20716;-77
2023/08/04 04:46:32;;;;;;;0.10;0.10;;;;;;;13.12;100.00;96077.25;5036144;28;20075;-76
2023/08/04 04:49:18;;;;;;;0.10;0.10;;;;;;;13.08;100.00;96087.78;5031209;28;20047;-77
2023/08/04 04:52:05;;;;;;;0.10;0.10;;;;;;;13.25;100.00;96083.97;5034160;28;20037;-77
2023/08/04 04:54:51;;;;;;;0.10;0.10;;;;;;;13.26;100.00;96080.22;5034304;28;20044;-76
2023/08/04 04:57:40;;;;;;;0.10;0.10;;;;;;;13.33;100.00;96072.66;5031810;28;20134;-77
2023/08/04 05:00:25;;;;;;;0.10;0.10;;;;;;;13.38;100.00;96078.00;5033380;28;20045;-76
2023/08/04 05:03:11;;;;;;;0.10;0.10;;;;;;;13.35;100.00;96086.63;5034939;28;20094;-76
2023/08/04 05:05:57;;;;;;;0.10;0.10;;;;;;;13.36;100.00;96090.91;5017765;28;20602;-78
2023/08/04 05:08:43;;;;;;;0.10;0.10;;;;;;;13.40;100.00;96083.94;5035130;28;20033;-77
2023/08/04 05:11:29;;;;;;;0.10;0.10;;;;;;;13.46;100.00;96082.00;5034969;28;20558;-78
2023/08/04 05:14:15;;;;;;;0.10;0.10;;;;;;;13.47;100.00;96092.50;5031048;28;20049;-77
2023/08/04 05:17:01;;;;;;;0.10;0.10;;;;;;;13.44;100.00;96098.41;5033896;28;20094;-76
2023/08/04 05:19:47;;;;;;;0.10;0.10;;;;;;;13.42;100.00;96095.19;5034309;28;20570;-76
2023/08/04 05:22:35;;;;;;;0.10;0.10;;;;;;;13.40;100.00;96088.50;5032865;28;20480;-76
2023/08/04 05:25:21;;;;;;;0.10;0.10;;;;;;;13.32;100.00;96090.69;5028761;28;20037;-77
2023/08/04 05:28:20;;;;;;;0.00;0.00;;;;;;;13.35;100.00;96100.06;5033156;28;20072;-76
2023/08/04 05:31:08;;;;;;;0.10;0.10;;;;;;;13.31;100.00;96099.81;5034222;28;20079;-76
2023/08/04 05:33:56;;;;;;;0.10;0.10;;;;;;;13.38;100.00;96099.50;5033325;28;20045;-76
2023/08/04 05:36:41;;;;;;;0.10;0.10;;;;;;;13.46;100.00;96100.81;5035561;28;20041;-76
2023/08/04 05:39:27;;;;;;;0.10;0.10;;;;;;;13.49;100.00;96098.41;5032422;28;20828;-77
2023/08/04 05:42:13;;;;;;;0.10;0.10;;;;;;;13.52;100.00;96113.97;5033128;28;20037;-77
2023/08/04 05:44:59;;;;;;;0.10;0.10;;;;;;;13.56;100.00;96109.66;5041266;28;20137;-76
2023/08/04 05:47:45;;;;;;;0.17;0.17;;;;;;;13.63;100.00;96106.69;5019327;28;20033;-77
2023/08/04 05:50:31;;;;;;;0.10;0.10;;;;;;;13.65;100.00;96108.00;5022715;28;20044;-77
2023/08/04 05:53:17;;;;;;;0.10;0.10;;;;;;;13.57;100.00;96108.56;5033583;28;20152;-78
2023/08/04 05:56:03;;;;;;;0.10;0.10;;;;;;;13.71;100.00;96113.38;5038862;28;20045;-77
2023/08/04 05:58:49;;;;;;;0.10;0.10;;;;;;;13.80;100.00;96115.19;5037902;28;20040;-77
2023/08/04 06:01:35;;;;;;;0.10;0.10;;;;;;;13.83;100.00;96116.50;5035089;28;20044;-78
2023/08/04 06:04:21;;;;;;;0.10;0.10;;;;;;;13.72;100.00;96123.03;5036482;28;20068;-79
2023/08/04 06:07:06;;;;;;;0.10;0.10;;;;;;;13.76;100.00;96119.50;5033923;28;20562;-78
2023/08/04 06:09:52;;;;;;;0.03;0.03;;;;;;;13.84;100.00;96118.13;5036101;28;21211;-78
2023/08/04 06:12:38;;;;;;;0.10;0.10;;;;;;;13.91;100.00;96130.19;5035836;28;20044;-78
2023/08/04 06:15:24;;;;;;;0.10;0.10;;;;;;;13.95;100.00;96122.38;5036354;28;20072;-78
2023/08/04 06:18:10;;;;;;;0.10;0.10;;;;;;;13.95;100.00;96125.06;5036997;28;20040;-79
2023/08/04 06:20:56;;;;;;;0.20;0.20;;;;;;;14.01;100.00;96134.72;5037797;28;20033;-79
2023/08/04 06:23:45;;;;;;;0.10;0.10;;;;;;;13.96;100.00;96134.75;5032173;28;20037;-78
2023/08/04 06:26:31;;;;;;;0.13;0.13;;;;;;;13.97;100.00;96136.34;5037269;28;20069;-79
2023/08/04 06:29:17;;;;;;;0.10;0.10;;;;;;;14.00;100.00;96137.66;5020087;28;20045;-79
2023/08/04 06:32:03;;;;;;;0.20;0.15;;;;;;;14.05;100.00;96140.34;5023537;28;20042;-78
2023/08/04 06:34:49;;;;;;;0.10;0.10;;;;;;;14.17;100.00;96146.19;5035584;28;20064;-78
2023/08/04 06:37:35;;;;;;;0.10;0.10;;;;;;;14.15;100.00;96146.44;5037165;28;20044;-79
2023/08/04 06:40:21;;;;;;;0.20;0.20;;;;;;;14.13;100.00;96142.44;5036627;28;20057;-79
2023/08/04 06:43:07;;;;;;;0.13;0.13;;;;;;;14.20;100.00;96146.44;5035387;28;20538;-79
2023/08/04 06:45:53;;;;;;;0.20;0.20;;;;;;;14.33;100.00;96149.59;5022738;28;20048;-79
2023/08/04 06:48:38;;;;;;;0.10;0.10;;;;;;;14.43;100.00;96152.22;5035485;28;20115;-78
2023/08/04 06:51:24;;;;;;;0.17;0.17;;;;;;;14.46;100.00;96159.75;5035309;28;20127;-79
2023/08/04 06:54:10;;;;;;;0.20;0.20;;;;;;;14.54;100.00;96158.34;5033324;28;20052;-79
2023/08/04 06:56:56;;;;;;;0.10;0.10;;;;;;;14.48;100.00;96162.97;5040274;28;20048;-79
2023/08/04 06:59:42;;;;;;;0.10;0.10;;;;;;;14.53;100.00;96159.44;5036994;28;20037;-79
2023/08/04 07:02:28;;;;;;;0.10;0.10;;;;;;;14.55;100.00;96160.75;5017151;28;20604;-79
2023/08/04 07:05:15;;;;;;;0.20;0.20;;;;;;;14.63;100.00;96165.56;5035294;28;20047;-79
2023/08/04 07:08:03;;;;;;;0.20;0.20;;;;;;;14.68;100.00;96170.88;5033216;28;20722;-78
2023/08/04 07:10:48;;;;;;;0.20;0.20;;;;;;;14.85;100.00;96167.78;5021804;28;20464;-78
2023/08/04 07:13:34;;;;;;;0.10;0.10;;;;;;;15.03;100.00;96172.50;5035313;28;20066;-78
2023/08/04 07:16:21;;;;;;;0.10;0.10;;;;;;;15.24;100.00;96175.78;5036932;28;20491;-79
2023/08/04 07:19:07;;;;;;;0.10;0.10;;;;;;;15.18;100.00;96176.94;5035251;28;20412;-79
2023/08/04 07:21:52;;;;;;;0.10;0.10;;;;;;;15.11;100.00;96187.25;5035261;28;20147;-79
2023/08/04 07:24:38;;;;;;;0.10;0.10;;;;;;;15.37;100.00;96187.00;5033191;28;20684;-79
2023/08/04 07:27:24;;;;;;;0.10;0.10;;;;;;;15.11;100.00;96187.25;5033181;28;20049;-79
2023/08/04 07:30:10;;;;;;;0.20;0.20;;;;;;;15.42;100.00;96193.16;5032887;28;20412;-78
2023/08/04 07:32:56;;;;;;;0.15;0.15;;;;;;;15.33;100.00;96195.66;5034537;28;20039;-79
2023/08/04 07:35:42;;;;;;;0.20;0.20;;;;;;;15.46;100.00;96194.16;5036753;28;20029;-79
2023/08/04 07:38:31;;;;;;;0.17;0.17;;;;;;;15.47;100.00;96198.47;5035202;28;20076;-79
2023/08/04 07:41:21;;;;;;;0.10;0.10;;;;;;;15.58;100.00;96204.56;5033799;28;20147;-79
2023/08/04 07:44:07;;;;;;;0.10;0.10;;;;;;;15.64;100.00;96200.78;5033290;28;20036;-79
2023/08/04 07:46:53;;;;;;;0.10;0.10;;;;;;;15.73;100.00;96204.44;5034013;28;20072;-78
2023/08/04 07:49:38;;;;;;;0.20;0.20;;;;;;;15.71;100.00;96211.19;5034392;28;20052;-78
2023/08/04 07:52:24;;;;;;;0.10;0.10;;;;;;;15.84;100.00;96205.91;5034536;28;20065;-78
2023/08/04 07:55:10;;;;;;;0.10;0.10;;;;;;;16.15;100.00;96202.84;5032712;28;20053;-78
2023/08/04 07:57:56;;;;;;;0.10;0.10;;;;;;;16.19;100.00;96203.88;5032719;28;20089;-78
2023/08/04 08:00:42;;;;;;;0.10;0.10;;;;;;;16.36;100.00;96211.50;5033653;28;20036;-78
2023/08/04 08:03:27;;;;;;;0.20;0.20;;;;;;;16.51;100.00;96211.28;5032685;28;20079;-78
2023/08/04 08:06:13;;;;;;;0.10;0.10;;;;;;;16.37;100.00;96208.50;5034224;28;20040;-78
2023/08/04 08:08:59;;;;;;;0.10;0.10;;;;;;;16.01;100.00;96210.03;5031322;28;20136;-78
2023/08/04 08:11:45;;;;;;;0.20;0.20;;;;;;;15.78;100.00;96220.56;5035097;28;20040;-78
2023/08/04 08:14:33;;;;;;;0.10;0.10;;;;;;;15.91;100.00;96213.66;5022622;28;20044;-78
2023/08/04 08:17:19;;;;;;;0.10;0.10;;;;;;;16.11;100.00;96215.34;5033223;28;20160;-78
2023/08/04 08:20:06;;;;;;;0.10;0.10;;;;;;;16.30;100.00;96223.44;5033820;28;20045;-78
2023/08/04 08:22:52;;;;;;;0.10;0.10;;;;;;;16.57;100.00;96212.00;5032673;28;20060;-79
2023/08/04 08:25:38;;;;;;;0.10;0.10;;;;;;;16.58;100.00;96219.81;5032493;28;20037;-79
2023/08/04 08:28:24;;;;;;;0.10;0.10;;;;;;;16.93;100.00;96215.00;5030266;28;20487;-79
2023/08/04 08:31:10;;;;;;;0.10;0.10;;;;;;;17.07;100.00;96223.16;5033644;28;20067;-79
2023/08/04 08:33:56;;;;;;;0.10;0.10;;;;;;;17.41;100.00;96225.53;5016352;28;20041;-77
2023/08/04 08:36:42;;;;;;;0.10;0.10;;;;;;;17.47;100.00;96235.97;5017062;28;20044;-76
2023/08/04 08:39:31;;;;;;;0.10;0.10;;;;;;;17.61;100.00;96232.50;5019327;28;20342;-78
2023/08/04 08:42:16;;;;;;;0.10;0.10;;;;;;;17.67;100.00;96237.53;5030556;28;20519;-78
2023/08/04 08:45:03;;;;;;;0.10;0.10;;;;;;;17.80;100.00;96231.34;5033226;28;20131;-78
2023/08/04 08:47:49;;;;;;;0.10;0.10;;;;;;;17.85;100.00;96235.06;5032955;28;20442;-78
2023/08/04 08:50:35;;;;;;;0.13;0.10;;;;;;;18.00;100.00;96241.00;5018546;28;20636;-78
2023/08/04 08:53:25;;;;;;;0.10;0.10;;;;;;;18.20;100.00;96236.25;5031611;28;20053;-78
2023/08/04 08:56:11;;;;;;;0.10;0.10;;;;;;;18.67;100.00;96232.28;5029724;28;20045;-77
2023/08/04 08:58:57;;;;;;;0.10;0.10;;;;;;;18.83;100.00;96230.84;5018661;28;20045;-77
2023/08/04 09:01:43;;;;;;;0.10;0.10;;;;;;;18.84;100.00;96240.59;5034276;28;20037;-78
2023/08/04 09:04:37;;;;;;;0.13;0.13;;;;;;;18.53;100.00;96245.84;5030825;28;20080;-78
2023/08/04 09:07:23;;;;;;;0.10;0.10;;;;;;;19.08;100.00;96242.22;5017074;28;20067;-78
2023/08/04 09:10:09;;;;;;;0.10;0.10;;;;;;;18.87;100.00;96250.81;5034752;28;20080;-79
2023/08/04 09:12:57;;;;;;;0.10;0.10;;;;;;;19.05;100.00;96248.22;5029960;28;20123;-79
2023/08/04 09:15:51;;;;;;;0.10;0.10;;;;;;;19.40;100.00;96252.00;5033216;28;20083;-79
2023/08/04 09:18:38;;;;;;;0.17;0.17;;;;;;;19.41;100.00;96253.59;5036071;28;20063;-78
2023/08/04 09:21:24;;;;;;;0.10;0.10;;;;;;;19.25;100.00;96252.38;5034919;28;20523;-79
2023/08/04 09:24:11;;;;;;;0.10;0.10;;;;;;;19.36;100.00;96245.56;5022820;28;20064;-79
2023/08/04 09:26:57;;;;;;;0.10;0.10;;;;;;;19.43;100.00;96246.75;5037867;28;20036;-79
2023/08/04 09:29:56;;;;;;;0.10;0.10;;;;;;;19.30;100.00;96252.22;5038288;28;20029;-78
2023/08/04 09:32:47;;;;;;;0.10;0.10;;;;;;;19.29;100.00;96250.63;5036686;28;20631;-80
2023/08/04 09:35:33;;;;;;;0.10;0.10;;;;;;;19.12;100.00;96257.53;5036313;28;20068;-79
2023/08/04 09:38:21;;;;;;;0.20;0.20;;;;;;;19.15;100.00;96242.59;5025242;28;20079;-79
2023/08/04 09:41:07;;;;;;;0.17;0.17;;;;;;;19.44;100.00;96253.78;5038950;28;20046;-79
2023/08/04 09:43:53;;;;;;;0.20;0.20;;;;;;;19.58;100.00;96255.66;5024052;28;20041;-79
2023/08/04 09:46:48;;;;;;;0.20;0.20;;;;;;;19.65;100.00;96262.22;5035877;28;20059;-79
2023/08/04 09:49:35;;;;;;;0.10;0.10;;;;;;;19.66;100.00;96263.84;5035912;28;20043;-79
2023/08/04 09:52:27;;;;;;;0.20;0.20;;;;;;;20.09;100.00;96262.44;5034131;28;20045;-79
2023/08/04 09:55:13;;;;;;;0.10;0.10;;;;;;;20.39;100.00;96261.59;5035055;28;20033;-80
2023/08/04 09:58:00;;;;;;;0.10;0.10;;;;;;;20.39;100.00;96261.59;5032739;28;20041;-79
2023/08/04 10:00:46;;;;;;;0.10;0.10;;;;;;;20.48;100.00;96265.16;5035412;28;20064;-80
2023/08/04 10:03:37;;;;;;;0.10;0.10;;;;;;;20.73;100.00;96252.72;5036003;28;20444;-78
2023/08/04 10:06:24;;;;;;;0.10;0.10;;;;;;;21.10;100.00;96259.47;5036163;28;20048;-79
2023/08/04 10:09:11;;;;;;;0.20;0.20;;;;;;;21.56;100.00;96262.66;5035422;28;20090;-79
2023/08/04 10:11:58;;;;;;;0.20;0.20;;;;;;;21.39;100.00;96261.53;5036917;28;20045;-79
2023/08/04 10:14:44;;;;;;;0.10;0.10;;;;;;;21.24;100.00;96264.72;5037232;28;20096;-78
2023/08/04 10:17:30;;;;;;;0.17;0.17;;;;;;;21.10;100.00;96269.53;5035675;28;20053;-78
2023/08/04 10:20:16;;;;;;;0.10;0.10;;;;;;;21.25;100.00;96263.63;5034707;28;21079;-79
2023/08/04 10:23:03;;;;;;;0.10;0.10;;;;;;;21.60;100.00;96271.75;5032432;28;20064;-78
2023/08/04 10:25:54;;;;;;;0.10;0.10;;;;;;;21.64;100.00;96275.44;5021064;28;20095;-78
2023/08/04 10:28:59;;;;;;;0.20;0.20;;;;;;;21.46;100.00;96273.84;5034657;28;20041;-78
2023/08/04 10:31:56;;;;;;;0.10;0.10;;;;;;;21.72;100.00;96277.34;5032733;28;20037;-79
2023/08/04 10:34:43;;;;;;;0.10;0.10;;;;;;;22.03;100.00;96284.47;5034252;28;20109;-78
2023/08/04 10:37:29;;;;;;;0.10;0.10;;;;;;;22.68;100.00;96283.22;5031275;28;20097;-78
2023/08/04 10:40:27;;;;;;;0.10;0.10;;;;;;;22.67;95.67;96276.97;5034854;28;20045;-78
2023/08/04 10:43:20;;;;;;;0.10;0.10;;;;;;;22.12;100.00;96277.09;5034149;28;20695;-78
2023/08/04 10:46:10;;;;;;;0.10;0.10;;;;;;;21.93;97.79;96277.44;5034717;28;21143;-79
2023/08/04 10:48:56;;;;;;;0.10;0.10;;;;;;;21.41;100.00;96285.72;5034275;28;20047;-78
2023/08/04 10:51:45;;;;;;;0.10;0.10;;;;;;;21.22;100.00;96285.22;5036942;28;20577;-78
2023/08/04 10:54:31;;;;;;;0.10;0.10;;;;;;;21.22;100.00;96288.72;5032354;28;20037;-78
2023/08/04 10:57:21;;;;;;;0.10;0.10;;;;;;;21.02;100.00;96283.94;5032873;28;20032;-78
2023/08/04 11:00:09;;;;;;;0.10;0.10;;;;;;;21.15;100.00;96293.84;5034228;28;20051;-78
2023/08/04 11:02:55;;;;;;;0.10;0.10;;;;;;;20.94;100.00;96296.41;5030084;28;20044;-78
2023/08/04 11:05:41;;;;;;;0.10;0.10;;;;;;;20.83;100.00;96290.47;5016458;28;20124;-79
2023/08/04 11:08:27;;;;;;;0.10;0.10;;;;;;;21.04;100.00;96293.38;5018913;28;20852;-79
2023/08/04 11:11:13;;;;;;;0.20;0.20;;;;;;;21.23;100.00;96292.25;5017928;28;20063;-79
2023/08/04 11:13:59;;;;;;;0.15;0.15;;;;;;;21.33;100.00;96300.13;5019054;28;20044;-77
2023/08/04 11:16:46;;;;;;;0.10;0.10;;;;;;;21.26;100.00;96305.22;5035396;28;20032;-78
2023/08/04 11:19:32;;;;;;;0.10;0.10;;;;;;;20.15;100.00;96310.84;5033356;28;20041;-78
2023/08/04 11:22:21;;;;;;;0.10;0.10;;;;;;;19.56;100.00;96315.63;5032247;28;20041;-78
2023/08/04 11:25:07;;;;;;;0.10;0.10;;;;;;;18.93;100.00;96311.94;5036356;28;20063;-78
2023/08/04 11:27:53;;;;;;;0.10;0.10;;;;;;;18.62;100.00;96313.69;5031792;28;20079;-78
2023/08/04 11:30:38;;;;;;;0.20;0.20;;;;;;;18.42;100.00;96333.84;5035967;28;20039;-78
2023/08/04 11:33:24;;;;;;;0.10;0.10;;;;;;;18.61;100.00;96325.63;5031184;28;20037;-77
2023/08/04 11:36:10;;;;;;;0.20;0.20;;;;;;;18.70;100.00;96315.72;5032015;28;20033;-77
2023/08/04 11:38:56;;;;;;;0.10;0.10;;;;;;;18.60;100.00;96330.25;5034163;28;20909;-78
2023/08/04 11:41:46;;;;;;;0.20;0.20;;;;;;;18.44;100.00;96325.41;5036025;28;20144;-77
2023/08/04 11:44:32;;;;;;;0.20;0.20;;;;;;;18.65;100.00;96332.03;5034192;28;20128;-78
2023/08/04 11:47:19;;;;;;;0.20;0.20;;;;;;;18.88;100.00;96327.50;5034047;28;20159;-78
2023/08/04 11:50:07;;;;;;;0.20;0.20;;;;;;;19.15;100.00;96322.03;5036461;28;20688;-78
2023/08/04 11:52:53;;;;;;;0.10;0.10;;;;;;;19.64;100.00;96339.34;5032698;28;20040;-78
2023/08/04 11:56:08;;;;;;;0.20;0.20;;;;;;;20.05;100.00;96338.31;5032399;28;20040;-77
2023/08/04 11:58:55;;;;;;;0.10;0.10;;;;;;;20.36;100.00;96329.31;5033030;28;20189;-77
2023/08/04 12:01:41;;;;;;;0.10;0.10;;;;;;;21.07;100.00;96333.53;5028841;28;20126;-78
2023/08/04 12:04:27;;;;;;;0.10;0.10;;;;;;;21.52;98.15;96335.19;5032908;28;20049;-78
2023/08/04 12:07:13;;;;;;;0.10;0.10;;;;;;;22.80;92.71;96329.66;5031157;28;20116;-78
2023/08/04 12:09:59;;;;;;;0.20;0.20;;;;;;;24.35;83.25;96324.81;5034664;28;20556;-78
2023/08/04 12:12:45;;;;;;;0.10;0.10;;;;;;;25.75;65.33;96332.63;5015387;28;20047;-79
2023/08/04 12:15:50;;;;;;;0.10;0.10;;;;;;;26.04;57.05;96336.94;5034482;28;20049;-78
2023/08/04 12:18:37;;;;;;;0.20;0.20;;;;;;;24.88;70.42;96344.09;5031248;28;20036;-78
2023/08/04 12:21:23;;;;;;;0.10;0.10;;;;;;;23.61;83.67;96342.94;5031140;28;20044;-78
2023/08/04 12:24:08;;;;;;;0.20;0.20;;;;;;;22.16;95.05;96340.69;5033310;28;20272;-78
2023/08/04 12:26:54;;;;;;;0.20;0.20;;;;;;;21.58;95.80;96328.44;5031752;28;20041;-78
2023/08/04 12:29:40;;;;;;;0.10;0.10;;;;;;;21.70;98.57;96336.75;5034968;28;20877;-79
2023/08/04 12:32:27;;;;;;;0.10;0.10;;;;;;;21.73;99.24;96340.78;5031624;28;20534;-79
2023/08/04 12:35:13;;;;;;;0.20;0.20;;;;;;;21.76;98.30;96346.34;5033776;28;20049;-78
2023/08/04 12:38:03;;;;;;;0.10;0.10;;;;;;;21.57;97.72;96354.88;5034430;28;20045;-78
2023/08/04 12:40:49;;;;;;;0.10;0.10;;;;;;;22.02;99.58;96342.78;5020008;28;20623;-78
2023/08/04 12:43:35;;;;;;;0.20;0.20;;;;;;;22.80;95.91;96341.38;5033532;28;20555;-78
2023/08/04 12:46:21;;;;;;;0.28;0.28;;;;;;;23.47;92.84;96336.91;5031228;28;20044;-79
2023/08/04 12:49:07;;;;;;;0.20;0.20;;;;;;;24.05;86.82;96337.06;5036996;28;20064;-78
2023/08/04 12:51:53;;;;;;;0.20;0.20;;;;;;;25.58;76.63;96338.38;5041111;28;20138;-77
2023/08/04 12:54:39;;;;;;;0.20;0.20;;;;;;;27.54;67.39;96333.09;5046521;28;20522;-80
2023/08/04 12:57:25;;;;;;;0.20;0.20;;;;;;;30.21;46.31;96323.59;5028795;28;20064;-79
2023/08/04 13:00:11;;;;;;;0.20;0.20;;;;;;;30.83;40.36;96327.69;5041633;28;20717;-80